Time;durP1;ratioP1;P1;durP2;ratioP2;P2;SDS_P1;SDS_P2;PMS_P1;PMS_P2;Temp;Humidity;BMP_temperature;BMP_pressure;BME280_temperature;BME280_humidity;BME280_pressure;Samples;Min_cycle;Max_cycle;Signal;HPM_P1;HPM_P2
2021/12/30 06:03:21;;;;;;;1999.90;999.90;;;;;;;;;;4971979;28;20211;-72
2021/12/30 06:06:06;;;;;;;1999.90;999.90;;;;;;;;;;4973767;28;20260;-71
2021/12/30 06:08:53;;;;;;;1999.90;999.90;;;;;;;;;;4973281;28;20205;-71
2021/12/30 06:11:37;;;;;;;1999.90;999.90;;;;;;;;;;4962824;28;20233;-71
2021/12/30 06:14:22;;;;;;;1999.90;999.90;;;;;;;;;;4954240;29;20212;-71
2021/12/30 06:17:08;;;;;;;1999.90;999.90;;;;;;;;;;4954231;29;20200;-72
2021/12/30 06:19:54;;;;;;;1999.90;999.90;;;;;;;;;;4954243;29;20550;-71
2021/12/30 06:22:40;;;;;;;1999.90;999.90;;;;;;;;;;4954022;28;20228;-71
2021/12/30 06:25:25;;;;;;;1999.90;999.90;;;;;;;;;;4953680;28;20230;-71
2021/12/30 06:28:10;;;;;;;1999.90;999.90;;;;;;;;;;4953537;29;20202;-71
2021/12/30 06:30:55;;;;;;;1999.90;999.90;;;;;;;;;;4953379;28;20971;-72
2021/12/30 06:33:40;;;;;;;1999.90;999.90;;;;;;;;;;4954120;29;20208;-72
2021/12/30 06:36:26;;;;;;;1999.90;999.90;;;;;;;;;;4954155;29;20208;-70
2021/12/30 06:39:11;;;;;;;1999.90;999.90;;;;;;;;;;4953413;29;20205;-72
2021/12/30 06:41:56;;;;;;;1999.90;999.90;;;;;;;;;;4953757;28;20225;-72
2021/12/30 06:44:41;;;;;;;1999.90;999.90;;;;;;;;;;4954299;29;20211;-72
2021/12/30 06:47:26;;;;;;;1999.90;999.90;;;;;;;;;;4953520;29;20208;-72
2021/12/30 06:50:14;;;;;;;1999.90;999.90;;;;;;;;;;4953420;29;20227;-71
2021/12/30 06:53:00;;;;;;;1999.90;999.90;;;;;;;;;;4953780;29;20282;-72
2021/12/30 06:55:45;;;;;;;1999.90;999.90;;;;;;;;;;4953737;29;20214;-71
2021/12/30 06:58:31;;;;;;;1999.90;999.90;;;;;;;;;;4953490;29;20344;-72
2021/12/30 07:01:16;;;;;;;1999.90;999.90;;;;;;;;;;4953479;28;20715;-72
2021/12/30 07:04:01;;;;;;;1999.90;999.90;;;;;;;;;;4953872;29;20213;-72
2021/12/30 07:06:45;;;;;;;1999.90;999.90;;;;;;;;;;4953598;29;20221;-72
2021/12/30 07:09:32;;;;;;;1999.90;999.90;;;;;;;;;;4953274;29;20692;-72
2021/12/30 07:12:17;;;;;;;1999.90;999.90;;;;;;;;;;4953590;28;20241;-72
2021/12/30 07:15:03;;;;;;;1999.90;999.90;;;;;;;;;;4953575;29;20205;-73
2021/12/30 07:17:49;;;;;;;1999.90;999.90;;;;;;;;;;4953192;29;20253;-72
2021/12/30 07:20:34;;;;;;;1999.90;999.90;;;;;;;;;;4953539;28;20217;-72
2021/12/30 07:23:19;;;;;;;1999.90;999.90;;;;;;;;;;4953264;29;20763;-71
2021/12/30 07:26:05;;;;;;;1999.90;999.90;;;;;;;;;;4953457;29;20318;-72
2021/12/30 07:28:50;;;;;;;1999.90;999.90;;;;;;;;;;4953005;29;20425;-72
2021/12/30 07:31:35;;;;;;;1999.90;999.90;;;;;;;;;;4953088;28;20290;-72
2021/12/30 07:34:20;;;;;;;1999.90;999.90;;;;;;;;;;4953075;29;20211;-72
2021/12/30 07:37:05;;;;;;;1999.90;999.90;;;;;;;;;;4954540;28;20687;-72
2021/12/30 07:39:50;;;;;;;1999.90;999.90;;;;;;;;;;4956760;29;20206;-72
2021/12/30 07:42:36;;;;;;;1999.90;999.90;;;;;;;;;;4956849;28;20341;-72
2021/12/30 07:45:22;;;;;;;1999.90;999.90;;;;;;;;;;4956909;29;20204;-72
2021/12/30 07:48:07;;;;;;;1999.90;999.90;;;;;;;;;;4956703;29;20206;-72
2021/12/30 07:50:52;;;;;;;1999.90;999.90;;;;;;;;;;4956686;28;20239;-72
2021/12/30 07:53:37;;;;;;;1999.90;999.90;;;;;;;;;;4957091;29;20217;-72
2021/12/30 07:56:22;;;;;;;1999.90;999.90;;;;;;;;;;4956685;29;20205;-72
2021/12/30 07:59:08;;;;;;;1999.90;999.90;;;;;;;;;;4956434;29;20213;-72
2021/12/30 08:01:53;;;;;;;1999.90;999.90;;;;;;;;;;4956463;28;20249;-72
2021/12/30 08:04:38;;;;;;;1999.90;999.90;;;;;;;;;;4956773;29;20210;-72
2021/12/30 08:07:24;;;;;;;1999.90;999.90;;;;;;;;;;4956702;29;20697;-72
2021/12/30 08:10:12;;;;;;;1999.90;999.90;;;;;;;;;;4956614;29;20319;-72
2021/12/30 08:12:57;;;;;;;1999.90;999.90;;;;;;;;;;4956472;29;20234;-72
2021/12/30 08:15:46;;;;;;;1999.90;999.90;;;;;;;;;;4956425;29;20213;-72
2021/12/30 08:18:33;;;;;;;1999.90;999.90;;;;;;;;;;4956019;29;20293;-71
2021/12/30 08:21:19;;;;;;;1999.90;999.90;;;;;;;;;;4956226;28;20284;-72
2021/12/30 08:24:04;;;;;;;1999.90;999.90;;;;;;;;;;4956330;29;20608;-72
2021/12/30 08:26:50;;;;;;;1999.90;999.90;;;;;;;;;;4956204;29;20214;-72
2021/12/30 08:29:34;;;;;;;1999.90;999.90;;;;;;;;;;4955900;29;20243;-70
2021/12/30 08:32:21;;;;;;;1999.90;999.90;;;;;;;;;;4955716;28;20734;-72
2021/12/30 08:35:07;;;;;;;1999.90;999.90;;;;;;;;;;4955793;29;20723;-72
2021/12/30 08:37:54;;;;;;;1999.90;999.90;;;;;;;;;;4955846;29;20273;-73
2021/12/30 08:40:39;;;;;;;1999.90;999.90;;;;;;;;;;4955914;28;20283;-72
2021/12/30 08:43:24;;;;;;;1999.90;999.90;;;;;;;;;;4955959;29;20228;-72
2021/12/30 08:46:09;;;;;;;1999.90;999.90;;;;;;;;;;4955890;29;20288;-72
2021/12/30 08:48:55;;;;;;;1999.90;999.90;;;;;;;;;;4954690;28;21342;-72
2021/12/30 08:51:41;;;;;;;1999.90;999.90;;;;;;;;;;4955386;28;20250;-72
2021/12/30 08:54:25;;;;;;;1999.90;999.90;;;;;;;;;;4955716;29;20621;-72
2021/12/30 08:57:11;;;;;;;1999.90;999.90;;;;;;;;;;4955684;29;20211;-72
2021/12/30 08:59:56;;;;;;;1999.90;999.90;;;;;;;;;;4955299;29;20242;-72
2021/12/30 09:02:41;;;;;;;1999.90;999.90;;;;;;;;;;4955560;28;20531;-72
2021/12/30 09:05:28;;;;;;;1999.90;999.90;;;;;;;;;;4955490;29;20210;-72
2021/12/30 09:08:13;;;;;;;1999.90;999.90;;;;;;;;;;4955175;29;20236;-72
2021/12/30 09:10:58;;;;;;;1999.90;999.90;;;;;;;;;;4954984;28;20243;-72
2021/12/30 09:13:43;;;;;;;1999.90;999.90;;;;;;;;;;4955353;29;20200;-72
2021/12/30 09:16:28;;;;;;;1999.90;999.90;;;;;;;;;;4955163;29;20207;-72
2021/12/30 09:19:12;;;;;;;1999.90;999.90;;;;;;;;;;4954710;29;20213;-72
2021/12/30 09:21:59;;;;;;;1999.90;999.90;;;;;;;;;;4954232;28;20441;-72
2021/12/30 09:24:43;;;;;;;1999.90;999.90;;;;;;;;;;4955083;29;20207;-71
2021/12/30 09:27:28;;;;;;;1999.90;999.90;;;;;;;;;;4955120;29;20254;-72
2021/12/30 09:30:14;;;;;;;1999.90;999.90;;;;;;;;;;4955094;29;20211;-72
2021/12/30 09:33:00;;;;;;;1999.90;999.90;;;;;;;;;;4954905;29;20295;-72
2021/12/30 09:35:47;;;;;;;1999.90;999.90;;;;;;;;;;4954677;29;20343;-72
2021/12/30 09:38:33;;;;;;;1999.90;999.90;;;;;;;;;;4954762;29;20212;-72
2021/12/30 09:41:19;;;;;;;1999.90;999.90;;;;;;;;;;4954721;28;20230;-72
2021/12/30 09:44:04;;;;;;;1999.90;999.90;;;;;;;;;;4954844;29;20295;-72
2021/12/30 09:46:49;;;;;;;1999.90;999.90;;;;;;;;;;4954803;29;20341;-72
2021/12/30 09:49:34;;;;;;;1999.90;999.90;;;;;;;;;;4954525;29;20212;-72
2021/12/30 09:52:19;;;;;;;1999.90;999.90;;;;;;;;;;4954357;28;20614;-72
2021/12/30 09:55:06;;;;;;;1999.90;999.90;;;;;;;;;;4954515;29;20263;-73
2021/12/30 09:57:52;;;;;;;1999.90;999.90;;;;;;;;;;4954379;29;20275;-72
2021/12/30 10:00:38;;;;;;;1999.90;999.90;;;;;;;;;;4947385;28;20212;-73
2021/12/30 10:03:23;;;;;;;1999.90;999.90;;;;;;;;;;4953687;29;20208;-73
2021/12/30 10:06:08;;;;;;;1999.90;999.90;;;;;;;;;;4945029;28;20250;-72
2021/12/30 10:08:54;;;;;;;1999.90;999.90;;;;;;;;;;4946012;29;20208;-72
2021/12/30 10:11:48;;;;;;;1999.90;999.90;;;;;;;;;;4946527;29;20610;-72
2021/12/30 10:14:35;;;;;;;1999.90;999.90;;;;;;;;;;4944669;29;20578;-70
2021/12/30 10:17:20;;;;;;;1999.90;999.90;;;;;;;;;;4953895;29;20492;-72
2021/12/30 10:20:16;;;;;;;1999.90;999.90;;;;;;;;;;4944790;29;20726;-72
2021/12/30 10:23:08;;;;;;;1999.90;999.90;;;;;;;;;;4952198;28;20275;-71
2021/12/30 10:25:53;;;;;;;1999.90;999.90;;;;;;;;;;4947780;29;20240;-71
2021/12/30 10:28:43;;;;;;;1999.90;999.90;;;;;;;;;;4949077;29;20231;-71
2021/12/30 10:31:29;;;;;;;1999.90;999.90;;;;;;;;;;4953067;28;20770;-71
2021/12/30 10:34:16;;;;;;;1999.90;999.90;;;;;;;;;;4954017;29;20211;-70
2021/12/30 10:37:02;;;;;;;1999.90;999.90;;;;;;;;;;4953784;29;20710;-73
2021/12/30 10:39:47;;;;;;;1999.90;999.90;;;;;;;;;;4947905;29;20206;-72
2021/12/30 10:42:33;;;;;;;1999.90;999.90;;;;;;;;;;4950399;28;20232;-73
2021/12/30 10:45:21;;;;;;;1999.90;999.90;;;;;;;;;;4943158;29;20419;-73
2021/12/30 10:48:11;;;;;;;1999.90;999.90;;;;;;;;;;4938655;29;20598;-72
2021/12/30 10:51:08;;;;;;;1999.90;999.90;;;;;;;;;;4948397;28;20232;-72
2021/12/30 10:53:54;;;;;;;1999.90;999.90;;;;;;;;;;4950545;29;20356;-71
2021/12/30 10:56:40;;;;;;;1999.90;999.90;;;;;;;;;;4949661;29;20614;-72
2021/12/30 10:59:26;;;;;;;1999.90;999.90;;;;;;;;;;4958128;28;20288;-74
2021/12/30 11:02:15;;;;;;;1999.90;999.90;;;;;;;;;;4943859;29;20313;-72
2021/12/30 11:05:05;;;;;;;1999.90;999.90;;;;;;;;;;4946443;28;20211;-69
2021/12/30 11:07:51;;;;;;;1999.90;999.90;;;;;;;;;;4950679;28;20206;-72
2021/12/30 11:10:37;;;;;;;1999.90;999.90;;;;;;;;;;4953530;28;20754;-72
2021/12/30 11:13:23;;;;;;;1999.90;999.90;;;;;;;;;;4975966;28;20582;-72
2021/12/30 11:16:08;;;;;;;1999.90;999.90;;;;;;;;;;4976792;28;20227;-72
2021/12/30 11:18:56;;;;;;;1999.90;999.90;;;;;;;;;;4959034;28;20831;-71
2021/12/30 11:21:42;;;;;;;1999.90;999.90;;;;;;;;;;4948187;28;20233;-71
2021/12/30 11:24:28;;;;;;;1999.90;999.90;;;;;;;;;;4954153;29;20282;-71
2021/12/30 11:27:14;;;;;;;1999.90;999.90;;;;;;;;;;4954706;29;20286;-71
2021/12/30 11:30:00;;;;;;;1999.90;999.90;;;;;;;;;;4956866;29;20298;-68
2021/12/30 11:32:48;;;;;;;1999.90;999.90;;;;;;;;;;4954632;29;20244;-70
2021/12/30 11:35:34;;;;;;;1999.90;999.90;;;;;;;;;;4954739;29;20444;-72
2021/12/30 11:38:19;;;;;;;1999.90;999.90;;;;;;;;;;4954908;29;20216;-72
2021/12/30 11:41:04;;;;;;;1999.90;999.90;;;;;;;;;;4956885;28;20244;-72
2021/12/30 11:43:50;;;;;;;1999.90;999.90;;;;;;;;;;4953188;28;20259;-72
2021/12/30 11:46:42;;;;;;;1999.90;999.90;;;;;;;;;;4949045;29;20213;-72
2021/12/30 11:49:42;;;;;;;1999.90;999.90;;;;;;;;;;4955402;29;20216;-72
2021/12/30 11:52:46;;;;;;;1999.90;999.90;;;;;;;;;;4956467;28;20224;-72
2021/12/30 11:55:50;;;;;;;1999.90;999.90;;;;;;;;;;4953478;28;20702;-72
2021/12/30 11:58:56;;;;;;;1999.90;999.90;;;;;;;;;;4956137;29;20211;-72
2021/12/30 12:01:42;;;;;;;1999.90;999.90;;;;;;;;;;4955998;28;20436;-71
2021/12/30 12:04:28;;;;;;;1999.90;999.90;;;;;;;;;;4954624;29;20208;-72
2021/12/30 12:07:12;;;;;;;1999.90;999.90;;;;;;;;;;4960288;28;20291;-72
2021/12/30 12:10:15;;;;;;;1999.90;999.90;;;;;;;;;;4959807;28;20215;-72
2021/12/30 12:26:18;;;;;;;1999.90;999.90;;;;;;;;;;5106319;27;20558;-72
2021/12/30 12:29:22;;;;;;;1999.90;999.90;;;;;;;;;;5108692;28;20750;-72
2021/12/30 12:32:10;;;;;;;1999.90;999.90;;;;;;;;;;5091110;28;20303;-73
2021/12/30 12:34:55;;;;;;;1999.90;999.90;;;;;;;;;;5083962;28;20227;-74
2021/12/30 12:37:54;;;;;;;1999.90;999.90;;;;;;;;;;5088538;28;20218;-73
2021/12/30 12:40:40;;;;;;;1999.90;999.90;;;;;;;;;;5086658;28;20566;-75
2021/12/30 12:43:28;;;;;;;1999.90;999.90;;;;;;;;;;5087816;28;20306;-73
2021/12/30 12:46:13;;;;;;;1999.90;999.90;;;;;;;;;;5079575;28;20207;-72
2021/12/30 12:48:58;;;;;;;1999.90;999.90;;;;;;;;;;5086891;28;20281;-72
2021/12/30 12:51:53;;;;;;;1999.90;999.90;;;;;;;;;;5077886;28;20236;-72
2021/12/30 12:54:39;;;;;;;1999.90;999.90;;;;;;;;;;5081309;28;20222;-73
2021/12/30 12:57:24;;;;;;;1999.90;999.90;;;;;;;;;;5088459;28;20211;-73
2021/12/30 13:00:12;;;;;;;1999.90;999.90;;;;;;;;;;5087251;28;20892;-73
2021/12/30 13:02:57;;;;;;;1999.90;999.90;;;;;;;;;;5082777;28;20458;-72
2021/12/30 13:05:52;;;;;;;1999.90;999.90;;;;;;;;;;5085225;28;20215;-73
2021/12/30 13:08:38;;;;;;;1999.90;999.90;;;;;;;;;;5076757;28;20574;-72
2021/12/30 13:11:25;;;;;;;1999.90;999.90;;;;;;;;;;5082396;28;20243;-73
2021/12/30 13:14:14;;;;;;;1999.90;999.90;;;;;;;;;;5084998;28;20295;-72
2021/12/30 13:17:02;;;;;;;1999.90;999.90;;;;;;;;;;5079222;28;20282;-73
2021/12/30 13:19:47;;;;;;;1999.90;999.90;;;;;;;;;;5067754;28;20346;-72
2021/12/30 13:22:32;;;;;;;1999.90;999.90;;;;;;;;;;5075874;28;20740;-72
2021/12/30 13:25:17;;;;;;;1999.90;999.90;;;;;;;;;;5083370;28;20216;-71
2021/12/30 13:28:04;;;;;;;1999.90;999.90;;;;;;;;;;5074206;28;20208;-73
2021/12/30 13:30:49;;;;;;;1999.90;999.90;;;;;;;;;;5074410;28;20586;-72
2021/12/30 13:33:35;;;;;;;1999.90;999.90;;;;;;;;;;5065058;28;20278;-73
2021/12/30 13:36:21;;;;;;;1999.90;999.90;;;;;;;;;;5065074;28;20215;-72
2021/12/30 13:39:10;;;;;;;1999.90;999.90;;;;;;;;;;5073828;28;20212;-72
2021/12/30 13:41:57;;;;;;;1999.90;999.90;;;;;;;;;;5071169;28;20239;-72
2021/12/30 13:44:44;;;;;;;1999.90;999.90;;;;;;;;;;5072575;28;20208;-72
2021/12/30 13:47:35;;;;;;;1999.90;999.90;;;;;;;;;;5073850;28;20215;-73
2021/12/30 13:50:22;;;;;;;1999.90;999.90;;;;;;;;;;5073984;28;20217;-72
2021/12/30 13:53:07;;;;;;;1999.90;999.90;;;;;;;;;;5072679;28;20217;-73
2021/12/30 13:55:53;;;;;;;1999.90;999.90;;;;;;;;;;5070935;28;20334;-72
2021/12/30 13:58:40;;;;;;;1999.90;999.90;;;;;;;;;;5066773;28;20622;-72
2021/12/30 14:01:25;;;;;;;1999.90;999.90;;;;;;;;;;5072140;28;20322;-73
2021/12/30 14:04:13;;;;;;;1999.90;999.90;;;;;;;;;;5070941;28;20200;-72
2021/12/30 14:07:02;;;;;;;1999.90;999.90;;;;;;;;;;5071101;28;20351;-72
2021/12/30 14:09:53;;;;;;;1999.90;999.90;;;;;;;;;;5069173;28;20219;-72
2021/12/30 14:12:38;;;;;;;1999.90;999.90;;;;;;;;;;5070002;28;20224;-73
2021/12/30 14:15:23;;;;;;;1999.90;999.90;;;;;;;;;;5069684;28;20726;-72
2021/12/30 14:18:09;;;;;;;1999.90;999.90;;;;;;;;;;5069866;28;20200;-72
2021/12/30 14:20:54;;;;;;;1999.90;999.90;;;;;;;;;;5063697;28;20236;-73
2021/12/30 14:23:43;;;;;;;1999.90;999.90;;;;;;;;;;5064123;28;20504;-72
2021/12/30 14:26:32;;;;;;;1999.90;999.90;;;;;;;;;;5071472;28;20693;-71
2021/12/30 14:29:18;;;;;;;1999.90;999.90;;;;;;;;;;5065122;28;20208;-73
2021/12/30 14:32:05;;;;;;;1999.90;999.90;;;;;;;;;;5062594;28;20252;-72
2021/12/30 14:34:50;;;;;;;1999.90;999.90;;;;;;;;;;5061330;28;20377;-72
2021/12/30 14:37:38;;;;;;;1999.90;999.90;;;;;;;;;;5062343;28;20212;-73
2021/12/30 14:40:24;;;;;;;1999.90;999.90;;;;;;;;;;5068042;28;20223;-73
2021/12/30 14:43:09;;;;;;;1999.90;999.90;;;;;;;;;;5067634;28;20220;-73
2021/12/30 14:45:54;;;;;;;1999.90;999.90;;;;;;;;;;5071183;28;20566;-72
2021/12/30 14:48:39;;;;;;;1999.90;999.90;;;;;;;;;;5069168;28;20215;-71
2021/12/30 14:51:24;;;;;;;1999.90;999.90;;;;;;;;;;5071270;28;20429;-71
2021/12/30 14:54:09;;;;;;;1999.90;999.90;;;;;;;;;;5072640;28;20323;-71
2021/12/30 14:56:56;;;;;;;1999.90;999.90;;;;;;;;;;5072935;28;20291;-69
2021/12/30 14:59:41;;;;;;;1999.90;999.90;;;;;;;;;;5068587;28;20241;-70
2021/12/30 15:02:27;;;;;;;1999.90;999.90;;;;;;;;;;5072121;28;20350;-70
2021/12/30 15:05:12;;;;;;;1999.90;999.90;;;;;;;;;;5072868;28;20223;-71
2021/12/30 15:07:57;;;;;;;1999.90;999.90;;;;;;;;;;5052130;28;20216;-69
2021/12/30 15:10:42;;;;;;;1999.90;999.90;;;;;;;;;;5061317;28;20610;-72
2021/12/30 15:13:29;;;;;;;1999.90;999.90;;;;;;;;;;5071547;28;20706;-71
2021/12/30 15:16:14;;;;;;;1999.90;999.90;;;;;;;;;;5072126;28;20227;-70
2021/12/30 15:18:59;;;;;;;1999.90;999.90;;;;;;;;;;5071934;28;20215;-72
2021/12/30 15:21:44;;;;;;;1999.90;999.90;;;;;;;;;;5072576;28;20259;-72
2021/12/30 15:24:29;;;;;;;1999.90;999.90;;;;;;;;;;5072786;28;20208;-71
2021/12/30 15:27:15;;;;;;;1999.90;999.90;;;;;;;;;;5072406;28;20205;-71
2021/12/30 15:30:02;;;;;;;1999.90;999.90;;;;;;;;;;5068977;28;20219;-70
2021/12/30 15:32:48;;;;;;;1999.90;999.90;;;;;;;;;;5066385;28;20625;-69
2021/12/30 15:35:35;;;;;;;1999.90;999.90;;;;;;;;;;5066902;28;20223;-70
2021/12/30 15:38:20;;;;;;;1999.90;999.90;;;;;;;;;;5068652;28;20229;-70
2021/12/30 15:41:05;;;;;;;1999.90;999.90;;;;;;;;;;5062272;28;20314;-71
2021/12/30 15:43:50;;;;;;;1999.90;999.90;;;;;;;;;;5060623;28;20713;-70
2021/12/30 15:46:36;;;;;;;1999.90;999.90;;;;;;;;;;5061770;28;20399;-71
2021/12/30 15:49:21;;;;;;;1999.90;999.90;;;;;;;;;;5068808;28;20515;-74
2021/12/30 15:52:06;;;;;;;1999.90;999.90;;;;;;;;;;5065116;28;20267;-71
2021/12/30 15:54:54;;;;;;;1999.90;999.90;;;;;;;;;;5065073;28;20215;-73
2021/12/30 15:57:39;;;;;;;1999.90;999.90;;;;;;;;;;5065627;28;20228;-73
2021/12/30 16:00:24;;;;;;;1999.90;999.90;;;;;;;;;;5061209;28;20208;-71
2021/12/30 16:03:10;;;;;;;1999.90;999.90;;;;;;;;;;5064341;28;20215;-73
2021/12/30 16:05:55;;;;;;;1999.90;999.90;;;;;;;;;;5051611;28;20207;-72
2021/12/30 16:08:40;;;;;;;1999.90;999.90;;;;;;;;;;5051407;28;20603;-73
2021/12/30 16:11:25;;;;;;;1999.90;999.90;;;;;;;;;;5061194;28;22093;-73
2021/12/30 16:14:10;;;;;;;1999.90;999.90;;;;;;;;;;5068085;28;20258;-72
2021/12/30 16:16:55;;;;;;;1999.90;999.90;;;;;;;;;;5061933;28;20346;-76
2021/12/30 16:19:41;;;;;;;1999.90;999.90;;;;;;;;;;5070060;28;20224;-71
2021/12/30 16:22:26;;;;;;;1999.90;999.90;;;;;;;;;;5070295;28;20224;-71
2021/12/30 16:25:12;;;;;;;1999.90;999.90;;;;;;;;;;5067206;28;20216;-73
2021/12/30 16:27:57;;;;;;;1999.90;999.90;;;;;;;;;;5069026;28;20352;-71
2021/12/30 16:30:42;;;;;;;1999.90;999.90;;;;;;;;;;5062881;28;20735;-72
2021/12/30 16:33:27;;;;;;;1999.90;999.90;;;;;;;;;;5061747;28;20258;-73
2021/12/30 16:36:14;;;;;;;1999.90;999.90;;;;;;;;;;5062073;28;20228;-72
2021/12/30 16:38:59;;;;;;;1999.90;999.90;;;;;;;;;;5062254;28;20220;-72
2021/12/30 16:41:44;;;;;;;1999.90;999.90;;;;;;;;;;5062861;28;20232;-72
2021/12/30 16:44:29;;;;;;;1999.90;999.90;;;;;;;;;;5061413;28;20752;-72
2021/12/30 16:47:16;;;;;;;1999.90;999.90;;;;;;;;;;5062618;28;20208;-71
2021/12/30 16:50:01;;;;;;;1999.90;999.90;;;;;;;;;;5062325;28;20216;-72
2021/12/30 16:52:47;;;;;;;1999.90;999.90;;;;;;;;;;5064731;28;20324;-70
2021/12/30 16:55:33;;;;;;;1999.90;999.90;;;;;;;;;;5054709;28;20216;-71
2021/12/30 16:58:18;;;;;;;1999.90;999.90;;;;;;;;;;5070870;28;20293;-72
2021/12/30 17:01:05;;;;;;;1999.90;999.90;;;;;;;;;;5071112;28;20234;-72
2021/12/30 17:03:50;;;;;;;1999.90;999.90;;;;;;;;;;5063425;28;20209;-74
2021/12/30 17:06:35;;;;;;;1999.90;999.90;;;;;;;;;;5072609;28;20274;-72
2021/12/30 17:09:23;;;;;;;1999.90;999.90;;;;;;;;;;5074300;28;20354;-72
2021/12/30 17:12:08;;;;;;;1999.90;999.90;;;;;;;;;;5074663;28;20716;-71
2021/12/30 17:14:54;;;;;;;1999.90;999.90;;;;;;;;;;5074657;28;20338;-72
2021/12/30 17:17:38;;;;;;;1999.90;999.90;;;;;;;;;;5074991;28;20246;-72
2021/12/30 17:20:25;;;;;;;1999.90;999.90;;;;;;;;;;5058333;28;20290;-73
2021/12/30 17:23:10;;;;;;;1999.90;999.90;;;;;;;;;;5074379;28;20212;-72
2021/12/30 17:25:56;;;;;;;1999.90;999.90;;;;;;;;;;5073761;28;20283;-73
2021/12/30 17:28:42;;;;;;;1999.90;999.90;;;;;;;;;;5068026;28;20212;-71
2021/12/30 17:31:27;;;;;;;1999.90;999.90;;;;;;;;;;5072419;28;20582;-69
2021/12/30 17:34:12;;;;;;;1999.90;999.90;;;;;;;;;;5070649;28;20347;-71
2021/12/30 17:36:59;;;;;;;1999.90;999.90;;;;;;;;;;5062226;28;20514;-72
2021/12/30 17:39:45;;;;;;;1999.90;999.90;;;;;;;;;;5053698;28;20213;-72
2021/12/30 17:42:31;;;;;;;1999.90;999.90;;;;;;;;;;5054231;28;20262;-73
2021/12/30 17:45:17;;;;;;;1999.90;999.90;;;;;;;;;;5054163;28;20209;-71
2021/12/30 17:48:03;;;;;;;1999.90;999.90;;;;;;;;;;5057372;28;20640;-72
2021/12/30 17:50:53;;;;;;;1999.90;999.90;;;;;;;;;;5070032;28;20227;-71
2021/12/30 17:53:38;;;;;;;1999.90;999.90;;;;;;;;;;5066868;28;20215;-71
2021/12/30 17:56:23;;;;;;;1999.90;999.90;;;;;;;;;;5072536;28;20231;-74
2021/12/30 17:59:10;;;;;;;1999.90;999.90;;;;;;;;;;5063004;28;20751;-72
2021/12/30 18:01:55;;;;;;;1999.90;999.90;;;;;;;;;;5073926;28;20753;-72
2021/12/30 18:04:40;;;;;;;1999.90;999.90;;;;;;;;;;5071825;28;20713;-73
2021/12/30 18:07:25;;;;;;;1999.90;999.90;;;;;;;;;;5073522;28;20208;-74
2021/12/30 18:10:10;;;;;;;1999.90;999.90;;;;;;;;;;5073712;28;20289;-74
2021/12/30 18:12:56;;;;;;;1999.90;999.90;;;;;;;;;;5067983;28;20205;-73
2021/12/30 18:15:43;;;;;;;1999.90;999.90;;;;;;;;;;5058047;28;20220;-72
2021/12/30 18:18:28;;;;;;;1999.90;999.90;;;;;;;;;;5079660;28;20214;-72
2021/12/30 18:21:13;;;;;;;1999.90;999.90;;;;;;;;;;5082169;28;20274;-72
2021/12/30 18:23:59;;;;;;;1999.90;999.90;;;;;;;;;;5067637;28;20338;-71
2021/12/30 18:26:44;;;;;;;1999.90;999.90;;;;;;;;;;5060380;28;20619;-71
2021/12/30 18:29:29;;;;;;;1999.90;999.90;;;;;;;;;;5072832;28;20219;-72
2021/12/30 18:32:16;;;;;;;1999.90;999.90;;;;;;;;;;5073294;28;20282;-72
2021/12/30 18:35:01;;;;;;;1999.90;999.90;;;;;;;;;;5073085;28;20214;-72
2021/12/30 18:37:47;;;;;;;1999.90;999.90;;;;;;;;;;5072799;28;20259;-72
2021/12/30 18:40:32;;;;;;;1999.90;999.90;;;;;;;;;;5071874;28;20216;-73
2021/12/30 18:43:17;;;;;;;1999.90;999.90;;;;;;;;;;5070178;28;20211;-72
2021/12/30 18:46:02;;;;;;;1999.90;999.90;;;;;;;;;;5064984;28;20205;-72
2021/12/30 18:48:48;;;;;;;1999.90;999.90;;;;;;;;;;5060577;28;20216;-71
2021/12/30 18:51:33;;;;;;;1999.90;999.90;;;;;;;;;;5062813;28;20721;-73
2021/12/30 18:54:18;;;;;;;1999.90;999.90;;;;;;;;;;5062294;28;20220;-72
2021/12/30 18:57:04;;;;;;;1999.90;999.90;;;;;;;;;;5062187;28;20432;-74
2021/12/30 18:59:49;;;;;;;1999.90;999.90;;;;;;;;;;5052158;28;20303;-74
2021/12/30 19:02:33;;;;;;;1999.90;999.90;;;;;;;;;;5063505;28;20303;-74
2021/12/30 19:05:21;;;;;;;1999.90;999.90;;;;;;;;;;5072733;28;20258;-72
2021/12/30 19:08:06;;;;;;;1999.90;999.90;;;;;;;;;;5072353;28;20212;-72
2021/12/30 19:10:51;;;;;;;1999.90;999.90;;;;;;;;;;5068347;28;20788;-73
2021/12/30 19:13:35;;;;;;;1999.90;999.90;;;;;;;;;;5067021;28;20224;-71
2021/12/30 19:16:21;;;;;;;1999.90;999.90;;;;;;;;;;5064584;28;20215;-73
2021/12/30 19:19:06;;;;;;;1999.90;999.90;;;;;;;;;;5069591;28;20313;-70
2021/12/30 19:21:53;;;;;;;1999.90;999.90;;;;;;;;;;5059004;28;20312;-70
2021/12/30 19:24:40;;;;;;;1999.90;999.90;;;;;;;;;;5064248;28;20229;-72
2021/12/30 19:27:26;;;;;;;1999.90;999.90;;;;;;;;;;5072322;28;20211;-73
2021/12/30 19:30:11;;;;;;;1999.90;999.90;;;;;;;;;;5071496;28;20210;-72
2021/12/30 19:32:56;;;;;;;1999.90;999.90;;;;;;;;;;5066319;28;20331;-74
2021/12/30 19:35:41;;;;;;;1999.90;999.90;;;;;;;;;;5064963;28;20213;-72
2021/12/30 19:38:28;;;;;;;1999.90;999.90;;;;;;;;;;5062274;28;20705;-73
2021/12/30 19:41:15;;;;;;;1999.90;999.90;;;;;;;;;;5069608;28;20228;-74
2021/12/30 19:44:00;;;;;;;1999.90;999.90;;;;;;;;;;5067703;28;20215;-74
2021/12/30 19:46:45;;;;;;;1999.90;999.90;;;;;;;;;;5066426;28;20212;-72
2021/12/30 19:49:30;;;;;;;1999.90;999.90;;;;;;;;;;5062242;28;20693;-72
2021/12/30 19:52:16;;;;;;;1999.90;999.90;;;;;;;;;;5067959;28;20309;-72
2021/12/30 19:55:03;;;;;;;1999.90;999.90;;;;;;;;;;5071851;28;20258;-72
2021/12/30 19:57:48;;;;;;;1999.90;999.90;;;;;;;;;;5057637;28;20293;-73
2021/12/30 20:00:36;;;;;;;1999.90;999.90;;;;;;;;;;5056997;28;20210;-72
2021/12/30 20:03:23;;;;;;;1999.90;999.90;;;;;;;;;;5060915;28;20203;-72
2021/12/30 20:06:09;;;;;;;1999.90;999.90;;;;;;;;;;5051771;28;20749;-72
2021/12/30 20:08:54;;;;;;;1999.90;999.90;;;;;;;;;;5051483;28;20290;-72
2021/12/30 20:11:41;;;;;;;1999.90;999.90;;;;;;;;;;5070947;28;20243;-73
2021/12/30 20:14:26;;;;;;;1999.90;999.90;;;;;;;;;;5071804;28;20211;-73
2021/12/30 20:17:11;;;;;;;1999.90;999.90;;;;;;;;;;5061758;28;20232;-72
2021/12/30 20:19:56;;;;;;;1999.90;999.90;;;;;;;;;;5071943;28;20258;-72
2021/12/30 20:22:45;;;;;;;1999.90;999.90;;;;;;;;;;5070610;28;20444;-72
2021/12/30 20:25:30;;;;;;;1999.90;999.90;;;;;;;;;;5071574;28;20578;-72
2021/12/30 20:28:17;;;;;;;1999.90;999.90;;;;;;;;;;5071198;28;20224;-73
2021/12/30 20:31:03;;;;;;;1999.90;999.90;;;;;;;;;;5070544;28;20239;-72
2021/12/30 20:33:47;;;;;;;1999.90;999.90;;;;;;;;;;5063050;28;20231;-72
2021/12/30 20:36:32;;;;;;;1999.90;999.90;;;;;;;;;;5073228;28;20226;-73
2021/12/30 20:39:18;;;;;;;1999.90;999.90;;;;;;;;;;5072331;28;20306;-73
2021/12/30 20:42:03;;;;;;;1999.90;999.90;;;;;;;;;;5066606;28;20232;-73
2021/12/30 20:44:50;;;;;;;1999.90;999.90;;;;;;;;;;5060705;28;20254;-73
2021/12/30 20:47:35;;;;;;;1999.90;999.90;;;;;;;;;;5062222;28;20211;-72
2021/12/30 20:50:21;;;;;;;1999.90;999.90;;;;;;;;;;5073321;28;20361;-74
2021/12/30 20:53:06;;;;;;;1999.90;999.90;;;;;;;;;;5066657;28;20343;-72
2021/12/30 20:55:51;;;;;;;1999.90;999.90;;;;;;;;;;5068003;28;20217;-72
2021/12/30 20:58:36;;;;;;;1999.90;999.90;;;;;;;;;;5067245;28;20216;-71
2021/12/30 21:01:29;;;;;;;1999.90;999.90;;;;;;;;;;5071254;28;20238;-73
2021/12/30 21:04:14;;;;;;;1999.90;999.90;;;;;;;;;;5071208;28;20282;-74
2021/12/30 21:06:59;;;;;;;1999.90;999.90;;;;;;;;;;5068734;28;20215;-74
2021/12/30 21:09:44;;;;;;;1999.90;999.90;;;;;;;;;;5072738;28;20684;-72
2021/12/30 21:12:29;;;;;;;1999.90;999.90;;;;;;;;;;5069868;28;20228;-72
2021/12/30 21:15:14;;;;;;;1999.90;999.90;;;;;;;;;;5072167;28;20212;-72
2021/12/30 21:18:02;;;;;;;1999.90;999.90;;;;;;;;;;5066662;28;20282;-72
2021/12/30 21:20:47;;;;;;;1999.90;999.90;;;;;;;;;;5054311;28;20224;-73
2021/12/30 21:23:32;;;;;;;1999.90;999.90;;;;;;;;;;5054383;28;20223;-72
2021/12/30 21:26:18;;;;;;;1999.90;999.90;;;;;;;;;;5064453;28;20212;-75
2021/12/30 21:29:04;;;;;;;1999.90;999.90;;;;;;;;;;5073209;28;20200;-72
2021/12/30 21:31:49;;;;;;;1999.90;999.90;;;;;;;;;;5067146;28;20229;-75
2021/12/30 21:34:35;;;;;;;1999.90;999.90;;;;;;;;;;5054202;28;20699;-72
2021/12/30 21:37:20;;;;;;;1999.90;999.90;;;;;;;;;;5061384;28;20374;-73
2021/12/30 21:40:06;;;;;;;1999.90;999.90;;;;;;;;;;5068123;28;20215;-74
2021/12/30 21:42:51;;;;;;;1999.90;999.90;;;;;;;;;;5066608;28;20275;-74